Time;durP1;ratioP1;P1;durP2;ratioP2;P2;SDS_P1;SDS_P2;PMS_P1;PMS_P2;Temp;Humidity;BMP_temperature;BMP_pressure;BME280_temperature;BME280_humidity;BME280_pressure;Samples;Min_cycle;Max_cycle;Signal;HPM_P1;HPM_P2
2022/10/04 00:00:35;;;;;;;1.75;1.10;;;11.80;99.90;;;;;;5218024;28;20116;-77
2022/10/04 00:03:11;;;;;;;4.40;1.45;;;11.80;99.90;;;;;;5218727;28;20052;-76
2022/10/04 00:05:52;;;;;;;4.50;1.52;;;11.80;99.90;;;;;;5204533;28;20052;-79
2022/10/04 00:08:23;;;;;;;3.55;1.85;;;11.80;99.90;;;;;;5201661;28;20051;-77
2022/10/04 00:11:16;;;;;;;2.63;1.30;;;11.80;99.90;;;;;;5233638;28;20459;-76
2022/10/04 00:13:51;;;;;;;3.63;1.42;;;11.70;99.90;;;;;;5216374;28;20039;-76
2022/10/04 00:16:28;;;;;;;3.58;1.55;;;11.70;99.90;;;;;;5218101;28;20031;-77
2022/10/04 00:19:18;;;;;;;4.13;1.50;;;11.70;99.90;;;;;;5217763;28;20025;-78
2022/10/04 00:21:55;;;;;;;4.32;1.92;;;11.70;99.90;;;;;;5188494;28;20025;-77
2022/10/04 00:24:37;;;;;;;5.32;1.90;;;11.70;99.90;;;;;;5194536;28;20028;-77
2022/10/04 00:27:25;;;;;;;2.40;1.67;;;11.60;99.90;;;;;;5200463;28;20058;-76
2022/10/04 00:30:22;;;;;;;1.63;1.52;;;11.60;99.90;;;;;;5218519;28;20097;-76
2022/10/04 00:33:03;;;;;;;2.88;1.63;;;11.60;99.90;;;;;;5225362;28;20022;-75
2022/10/04 00:35:46;;;;;;;3.88;1.77;;;11.60;99.90;;;;;;5222762;28;20032;-75
2022/10/04 00:38:26;;;;;;;2.17;1.35;;;11.60;99.90;;;;;;5191217;28;20283;-76
2022/10/04 00:41:04;;;;;;;5.47;1.60;;;11.60;99.90;;;;;;5196732;28;20039;-77
2022/10/04 00:43:47;;;;;;;3.83;1.50;;;11.60;99.90;;;;;;5240893;28;20508;-77
2022/10/04 00:46:22;;;;;;;4.10;1.88;;;11.60;99.90;;;;;;5242033;28;20024;-77
2022/10/04 00:48:59;;;;;;;2.15;1.30;;;11.60;99.90;;;;;;5223369;28;20017;-77
2022/10/04 00:51:37;;;;;;;2.95;1.85;;;11.60;99.90;;;;;;5215862;28;20031;-75
2022/10/04 00:54:21;;;;;;;1.73;1.30;;;11.70;99.90;;;;;;5212702;28;20039;-75
2022/10/04 00:56:59;;;;;;;1.45;1.30;;;11.70;99.90;;;;;;5181133;28;20043;-75
2022/10/04 00:59:49;;;;;;;2.13;1.77;;;11.80;99.90;;;;;;5195511;28;20029;-75
2022/10/04 01:02:25;;;;;;;3.30;1.60;;;11.90;99.90;;;;;;5190091;28;20227;-76
2022/10/04 01:05:11;;;;;;;1.55;1.45;;;11.90;99.90;;;;;;5220835;28;20052;-78
2022/10/04 01:07:55;;;;;;;1.33;1.23;;;12.00;99.90;;;;;;5186105;28;20041;-76
2022/10/04 01:10:44;;;;;;;5.68;1.70;;;12.00;99.90;;;;;;5219048;28;20254;-74
2022/10/04 01:13:22;;;;;;;4.15;1.55;;;12.00;99.90;;;;;;5206997;28;20032;-77
2022/10/04 01:16:03;;;;;;;3.92;1.90;;;12.10;99.90;;;;;;5174472;28;20043;-75
2022/10/04 01:18:35;;;;;;;3.08;1.80;;;12.10;99.90;;;;;;5182073;28;20029;-75
2022/10/04 01:21:19;;;;;;;2.08;1.52;;;12.10;99.90;;;;;;5215811;28;20370;-75
2022/10/04 01:23:59;;;;;;;5.03;1.48;;;12.10;99.90;;;;;;5215110;28;20029;-74
2022/10/04 01:26:39;;;;;;;2.65;1.40;;;12.20;99.90;;;;;;5198516;28;20024;-74
2022/10/04 01:29:28;;;;;;;1.50;1.30;;;12.10;99.90;;;;;;5215624;28;20029;-75
2022/10/04 01:32:00;;;;;;;3.55;1.45;;;12.10;99.90;;;;;;5182324;28;20332;-76
2022/10/04 01:34:31;;;;;;;5.40;1.83;;;12.10;99.90;;;;;;5177759;28;20041;-76
2022/10/04 01:37:03;;;;;;;2.17;1.67;;;12.20;99.90;;;;;;5195662;28;20033;-76
2022/10/04 01:39:34;;;;;;;3.65;1.58;;;12.20;99.90;;;;;;5219196;28;20024;-76
2022/10/04 01:42:11;;;;;;;2.08;1.25;;;12.20;99.90;;;;;;5218683;28;20459;-74
2022/10/04 01:44:54;;;;;;;1.33;1.23;;;12.10;99.90;;;;;;5238487;28;20035;-75
2022/10/04 01:47:40;;;;;;;1.58;1.48;;;12.10;99.90;;;;;;5239197;28;20040;-75
2022/10/04 01:50:39;;;;;;;3.53;1.60;;;12.20;99.90;;;;;;5219026;28;20380;-75
2022/10/04 01:53:19;;;;;;;1.90;1.35;;;12.20;99.90;;;;;;5218376;28;20224;-75
2022/10/04 01:55:54;;;;;;;3.45;1.67;;;12.20;99.90;;;;;;5222375;28;20049;-74
2022/10/04 01:58:32;;;;;;;2.38;1.20;;;12.20;99.90;;;;;;5201020;28;20514;-75
2022/10/04 02:01:29;;;;;;;4.15;1.60;;;12.20;99.90;;;;;;5193272;28;20041;-75
2022/10/04 02:04:07;;;;;;;2.20;1.60;;;12.20;99.90;;;;;;5223531;28;20033;-77
2022/10/04 02:06:41;;;;;;;2.40;1.73;;;12.20;99.90;;;;;;5228546;28;20048;-77
2022/10/04 02:09:22;;;;;;;1.70;1.33;;;12.20;99.90;;;;;;5222256;28;20035;-77
2022/10/04 02:11:57;;;;;;;3.55;1.80;;;12.20;99.90;;;;;;5219764;28;20025;-73
2022/10/04 02:14:34;;;;;;;3.10;1.98;;;12.20;99.90;;;;;;5217601;28;20114;-75
2022/10/04 02:17:10;;;;;;;1.60;1.50;;;12.10;99.90;;;;;;5215007;28;20302;-76
2022/10/04 02:19:45;;;;;;;4.18;1.50;;;12.10;99.90;;;;;;5164970;28;20040;-74
2022/10/04 02:22:20;;;;;;;2.60;1.38;;;12.00;99.90;;;;;;5200100;28;20029;-75
2022/10/04 02:24:55;;;;;;;3.30;1.50;;;12.10;99.90;;;;;;5215603;28;20026;-75
2022/10/04 02:27:30;;;;;;;5.25;1.63;;;12.10;99.90;;;;;;5202754;28;20342;-75
2022/10/04 02:30:09;;;;;;;2.78;1.42;;;12.10;99.90;;;;;;5203695;28;20033;-75
2022/10/04 02:32:56;;;;;;;1.58;1.38;;;12.10;99.90;;;;;;5208816;28;20306;-76
2022/10/04 02:35:37;;;;;;;2.00;1.52;;;12.10;99.90;;;;;;5153273;28;20041;-76
2022/10/04 02:38:14;;;;;;;2.17;1.50;;;12.10;99.90;;;;;;5182803;28;20028;-77
2022/10/04 02:40:56;;;;;;;1.90;1.42;;;12.00;99.90;;;;;;5217383;28;20032;-75
2022/10/04 02:43:37;;;;;;;4.60;1.40;;;12.00;99.90;;;;;;5184182;28;20051;-75
2022/10/04 02:46:35;;;;;;;4.72;1.60;;;12.00;99.90;;;;;;5183141;28;20465;-75
2022/10/04 02:49:32;;;;;;;6.38;1.85;;;12.10;99.90;;;;;;5179996;28;20036;-75
2022/10/04 02:52:11;;;;;;;4.70;1.65;;;12.10;99.90;;;;;;5180598;28;20352;-75
2022/10/04 02:54:48;;;;;;;1.67;1.50;;;12.10;99.90;;;;;;5203777;28;20028;-74
2022/10/04 02:57:21;;;;;;;4.85;1.75;;;12.00;99.90;;;;;;5207554;28;20036;-75
2022/10/04 03:00:13;;;;;;;2.90;1.77;;;12.00;99.90;;;;;;5221088;28;20043;-75
2022/10/04 03:03:21;;;;;;;4.70;1.70;;;12.00;99.90;;;;;;5212272;28;20245;-76
2022/10/04 03:05:58;;;;;;;2.17;1.50;;;12.00;99.90;;;;;;5210636;28;20398;-75
2022/10/04 03:08:35;;;;;;;2.42;1.55;;;12.00;99.90;;;;;;5220812;28;20042;-74
2022/10/04 03:11:07;;;;;;;4.03;1.52;;;12.00;99.90;;;;;;5226384;28;20025;-75
2022/10/04 03:13:48;;;;;;;1.95;1.55;;;12.10;99.90;;;;;;5213528;28;20032;-75
2022/10/04 03:16:20;;;;;;;1.60;1.23;;;12.00;99.90;;;;;;5199258;28;20346;-75
2022/10/04 03:18:58;;;;;;;3.20;1.50;;;12.00;99.90;;;;;;5217961;28;20563;-75
2022/10/04 03:21:31;;;;;;;2.90;2.15;;;12.00;99.90;;;;;;5199534;28;20035;-76
2022/10/04 03:24:05;;;;;;;2.05;1.85;;;12.00;99.90;;;;;;5188228;28;20036;-75
2022/10/04 03:26:42;;;;;;;3.88;1.65;;;12.00;99.90;;;;;;5196823;28;20526;-76
2022/10/04 03:29:19;;;;;;;3.80;1.40;;;12.00;99.90;;;;;;5183014;28;20036;-76
2022/10/04 03:31:57;;;;;;;2.83;1.80;;;12.00;99.90;;;;;;5198250;28;20302;-77
2022/10/04 03:34:42;;;;;;;2.05;1.58;;;11.90;99.90;;;;;;5203001;28;20048;-77
2022/10/04 03:37:19;;;;;;;3.05;1.40;;;11.90;99.90;;;;;;5183744;28;20039;-76
2022/10/04 03:39:55;;;;;;;2.72;1.70;;;11.90;99.90;;;;;;5200543;28;20032;-75
2022/10/04 03:42:33;;;;;;;1.92;1.27;;;11.90;99.90;;;;;;5220126;28;20032;-75
2022/10/04 03:45:17;;;;;;;3.20;1.75;;;11.90;99.90;;;;;;5219308;28;20028;-74
2022/10/04 03:47:51;;;;;;;2.75;1.60;;;11.90;99.90;;;;;;5225919;28;20029;-76
2022/10/04 03:50:26;;;;;;;3.13;1.70;;;11.90;99.90;;;;;;5194193;28;20040;-77
2022/10/04 03:53:10;;;;;;;5.53;1.83;;;11.90;99.90;;;;;;5199502;28;20048;-75
2022/10/04 03:55:44;;;;;;;3.85;2.13;;;11.90;99.90;;;;;;5182677;28;20037;-75
2022/10/04 03:58:17;;;;;;;3.25;1.98;;;12.00;99.90;;;;;;5198983;28;20029;-76
2022/10/04 04:01:20;;;;;;;3.58;1.70;;;12.00;99.90;;;;;;5217265;28;20032;-76
2022/10/04 04:04:14;;;;;;;6.85;2.03;;;12.00;99.90;;;;;;5224876;28;20024;-75
2022/10/04 04:07:05;;;;;;;2.85;1.75;;;12.00;99.90;;;;;;5164731;28;20045;-75
2022/10/04 04:10:07;;;;;;;2.75;1.65;;;12.00;99.90;;;;;;5201517;28;20028;-75
2022/10/04 04:12:58;;;;;;;4.40;2.00;;;12.00;99.90;;;;;;5188331;28;20043;-75
2022/10/04 04:15:31;;;;;;;3.58;1.40;;;12.10;99.90;;;;;;5199940;28;20037;-75
2022/10/04 04:18:07;;;;;;;2.25;1.48;;;12.10;99.90;;;;;;5216049;28;20230;-76
2022/10/04 04:20:41;;;;;;;3.25;1.73;;;12.10;99.90;;;;;;5199491;28;20039;-74
2022/10/04 04:23:31;;;;;;;3.08;1.70;;;12.10;99.90;;;;;;5186172;28;20029;-75
2022/10/04 04:26:27;;;;;;;4.18;2.05;;;12.10;99.90;;;;;;5182892;28;20040;-75
2022/10/04 04:29:21;;;;;;;1.42;1.25;;;12.10;99.90;;;;;;5216002;28;20035;-76
2022/10/04 04:31:57;;;;;;;4.07;1.97;;;12.10;99.90;;;;;;5199471;28;20045;-75
2022/10/04 04:34:51;;;;;;;3.85;1.60;;;12.10;99.90;;;;;;5209343;28;20270;-77
2022/10/04 04:37:28;;;;;;;3.63;1.90;;;12.10;99.90;;;;;;5214495;28;20027;-74
2022/10/04 04:40:23;;;;;;;2.90;1.38;;;12.10;99.90;;;;;;5211642;28;20348;-77
2022/10/04 04:43:00;;;;;;;2.25;1.77;;;12.10;99.90;;;;;;5178302;28;20078;-75
2022/10/04 04:45:32;;;;;;;1.85;1.40;;;12.10;99.90;;;;;;5192420;28;20041;-75
2022/10/04 04:48:06;;;;;;;2.55;1.80;;;12.20;99.90;;;;;;5215467;28;20020;-76
2022/10/04 04:50:39;;;;;;;2.53;1.85;;;12.20;99.90;;;;;;5193275;28;20033;-76
2022/10/04 04:53:18;;;;;;;2.85;1.60;;;12.20;99.90;;;;;;5196274;28;20026;-76
2022/10/04 04:55:58;;;;;;;3.42;1.75;;;12.20;99.90;;;;;;5214776;28;20043;-76
2022/10/04 04:58:37;;;;;;;4.82;1.90;;;12.20;99.90;;;;;;5199494;28;20040;-75
2022/10/04 05:01:21;;;;;;;3.72;1.38;;;12.10;99.90;;;;;;5215221;28;20028;-77
2022/10/04 05:04:03;;;;;;;;;;;12.10;99.90;;;;;;5220937;28;20033;-74
2022/10/04 05:06:37;;;;;;;3.97;1.60;;;12.20;99.90;;;;;;5191408;28;19908;-75
2022/10/04 05:09:39;;;;;;;2.03;1.30;;;12.20;99.90;;;;;;5216382;28;20313;-76
2022/10/04 05:12:21;;;;;;;2.72;1.63;;;12.10;99.90;;;;;;5180084;28;20029;-75
2022/10/04 05:14:55;;;;;;;3.05;1.35;;;12.10;99.90;;;;;;5215840;28;20036;-76
2022/10/04 05:17:38;;;;;;;4.55;1.70;;;12.20;99.90;;;;;;5215349;28;20035;-75
2022/10/04 05:20:13;;;;;;;4.15;1.80;;;12.20;99.90;;;;;;5202014;28;20056;-75
2022/10/04 05:22:50;;;;;;;3.17;1.50;;;12.20;99.90;;;;;;5223708;28;20389;-75
2022/10/04 05:25:31;;;;;;;2.55;1.58;;;12.20;99.90;;;;;;5236778;28;20342;-75
2022/10/04 05:28:09;;;;;;;2.45;1.70;;;12.40;99.90;;;;;;5185508;28;20045;-75
2022/10/04 05:30:47;;;;;;;2.90;1.55;;;12.30;99.90;;;;;;5218061;28;20045;-77
2022/10/04 05:33:47;;;;;;;2.47;1.50;;;12.40;99.90;;;;;;5229213;28;20504;-76
2022/10/04 05:36:40;;;;;;;2.65;1.35;;;12.30;99.90;;;;;;5222572;28;20043;-76
2022/10/04 05:39:38;;;;;;;2.60;1.67;;;12.40;99.90;;;;;;5238670;28;20206;-76
2022/10/04 05:42:23;;;;;;;3.67;1.42;;;12.40;99.90;;;;;;5218079;28;20051;-75
2022/10/04 05:44:56;;;;;;;2.90;1.73;;;12.40;99.90;;;;;;5202450;28;20037;-75
2022/10/04 05:47:32;;;;;;;2.53;1.40;;;12.40;99.90;;;;;;5219674;28;20039;-75
2022/10/04 05:50:03;;;;;;;3.70;1.80;;;12.50;99.90;;;;;;5200782;28;20330;-75
2022/10/04 05:52:38;;;;;;;1.40;1.30;;;12.50;99.90;;;;;;5218533;28;20016;-74
2022/10/04 05:55:31;;;;;;;3.60;1.65;;;12.50;99.90;;;;;;5218694;28;20056;-74
2022/10/04 05:58:02;;;;;;;1.70;1.40;;;12.50;99.90;;;;;;5218198;28;20036;-75
2022/10/04 06:01:03;;;;;;;3.75;1.60;;;12.50;99.90;;;;;;5218923;28;20039;-75
2022/10/04 06:03:54;;;;;;;3.05;1.67;;;12.50;99.90;;;;;;5190327;28;20044;-75
2022/10/04 06:06:39;;;;;;;1.77;1.50;;;12.50;99.90;;;;;;5223272;28;20052;-75
2022/10/04 06:09:56;;;;;;;2.05;1.20;;;12.60;99.90;;;;;;5205364;28;20028;-75
2022/10/04 06:12:54;;;;;;;3.20;1.58;;;12.60;99.90;;;;;;5107350;28;20362;-75
2022/10/04 06:15:39;;;;;;;3.15;1.40;;;12.60;99.90;;;;;;5090077;29;20038;-76
2022/10/04 06:18:29;;;;;;;1.77;1.42;;;12.60;99.90;;;;;;5114367;28;20051;-75
2022/10/04 06:21:14;;;;;;;3.78;1.60;;;12.70;99.90;;;;;;5118766;28;20474;-76
2022/10/04 06:24:09;;;;;;;3.97;2.10;;;12.60;99.90;;;;;;5103951;29;20413;-76
2022/10/04 06:27:12;;;;;;;3.47;2.00;;;12.70;99.90;;;;;;5119796;29;20031;-77
2022/10/04 06:29:56;;;;;;;5.15;1.65;;;12.70;99.90;;;;;;5095851;28;20031;-76
2022/10/04 06:32:42;;;;;;;2.90;1.48;;;12.70;99.90;;;;;;5118913;28;20023;-76
2022/10/04 06:35:50;;;;;;;2.88;1.40;;;12.60;99.90;;;;;;5135296;28;20039;-76
2022/10/04 06:38:52;;;;;;;1.73;1.52;;;12.70;99.90;;;;;;5135136;28;20045;-76
2022/10/04 06:41:37;;;;;;;3.33;1.80;;;12.70;99.90;;;;;;5115855;28;20079;-76
2022/10/04 06:44:35;;;;;;;;;;;12.70;99.90;;;;;;5173808;28;20029;-75
2022/10/04 06:47:27;;;;;;;4.28;1.73;;;12.70;99.90;;;;;;5200953;28;19913;-76
2022/10/04 06:50:04;;;;;;;2.15;1.77;;;12.70;99.90;;;;;;5200893;28;20047;-76
2022/10/04 06:53:04;;;;;;;5.55;1.60;;;12.70;99.90;;;;;;5218495;28;20047;-76
2022/10/04 06:56:01;;;;;;;3.42;1.75;;;12.70;99.90;;;;;;5201061;28;20041;-77
2022/10/04 06:58:52;;;;;;;2.90;1.70;;;12.80;99.90;;;;;;5201245;28;20246;-77
2022/10/04 07:01:29;;;;;;;3.28;1.45;;;12.90;99.90;;;;;;5220787;28;20444;-76
2022/10/04 07:04:30;;;;;;;2.05;1.40;;;12.80;99.90;;;;;;5223367;28;20025;-77
2022/10/04 07:07:36;;;;;;;1.73;1.60;;;12.90;99.90;;;;;;5190196;28;20059;-77
2022/10/04 07:10:23;;;;;;;2.60;1.20;;;12.90;99.90;;;;;;5227938;28;20028;-78
2022/10/04 07:13:04;;;;;;;4.07;1.80;;;12.90;99.90;;;;;;5228813;28;20016;-77
2022/10/04 07:15:56;;;;;;;3.90;1.70;;;12.90;99.90;;;;;;5202979;28;20021;-77
2022/10/04 07:18:55;;;;;;;2.92;1.83;;;13.00;99.90;;;;;;5218788;28;20043;-77
2022/10/04 07:21:49;;;;;;;2.95;1.65;;;13.10;99.90;;;;;;5179654;28;20033;-76
2022/10/04 07:24:35;;;;;;;2.65;1.40;;;13.10;99.90;;;;;;5170146;28;20043;-76
2022/10/04 07:27:12;;;;;;;2.30;1.45;;;13.20;99.90;;;;;;5180616;28;20365;-76
2022/10/04 07:29:45;;;;;;;1.70;1.40;;;13.20;99.90;;;;;;5204524;28;20024;-76
2022/10/04 07:32:23;;;;;;;3.88;1.52;;;13.30;99.90;;;;;;5218838;28;20029;-76
2022/10/04 07:35:04;;;;;;;2.33;1.48;;;13.30;99.90;;;;;;5238503;28;20030;-77
2022/10/04 07:37:49;;;;;;;3.67;1.50;;;13.30;99.90;;;;;;5239686;28;20032;-75
2022/10/04 07:40:35;;;;;;;1.60;1.50;;;13.40;99.90;;;;;;5239441;28;20044;-75
2022/10/04 07:43:26;;;;;;;3.05;1.45;;;13.30;99.90;;;;;;5229480;28;20025;-76
2022/10/04 07:46:44;;;;;;;1.33;1.17;;;13.40;99.90;;;;;;5210579;28;20033;-76
2022/10/04 07:49:20;;;;;;;2.35;1.30;;;13.50;99.90;;;;;;5163318;28;20046;-75
2022/10/04 07:52:31;;;;;;;3.30;1.50;;;13.70;99.90;;;;;;5185013;28;20047;-77
2022/10/04 07:55:05;;;;;;;3.67;1.48;;;13.80;99.90;;;;;;5226391;28;20016;-76
2022/10/04 07:58:06;;;;;;;1.77;1.60;;;13.70;99.90;;;;;;5221620;28;20031;-76
2022/10/04 08:01:02;;;;;;;4.15;1.67;;;13.90;99.90;;;;;;5199702;28;20029;-75
2022/10/04 08:03:36;;;;;;;6.03;1.33;;;14.00;99.90;;;;;;5224549;28;20386;-75
2022/10/04 08:06:32;;;;;;;2.65;1.73;;;14.00;99.90;;;;;;5229899;28;20355;-76
2022/10/04 08:09:28;;;;;;;1.85;1.35;;;14.20;99.90;;;;;;5223413;28;20039;-77
2022/10/04 08:12:48;;;;;;;3.22;1.50;;;14.30;99.90;;;;;;5204445;28;20586;-76
2022/10/04 08:15:28;;;;;;;1.95;1.75;;;14.30;99.90;;;;;;5150276;28;20051;-77
2022/10/04 08:18:11;;;;;;;1.92;1.60;;;14.50;99.90;;;;;;5198754;28;20024;-75
2022/10/04 08:20:57;;;;;;;4.45;1.63;;;14.70;99.90;;;;;;5217147;28;20030;-76
2022/10/04 08:23:40;;;;;;;3.17;1.40;;;14.70;99.90;;;;;;5217274;28;20029;-76
2022/10/04 08:26:39;;;;;;;2.53;1.83;;;14.70;99.90;;;;;;5199175;28;20036;-77
2022/10/04 08:29:42;;;;;;;2.95;1.48;;;14.80;99.90;;;;;;5199548;28;20122;-78
2022/10/04 08:33:05;;;;;;;4.95;2.17;;;14.80;99.90;;;;;;5199898;28;20029;-78
2022/10/04 08:35:36;;;;;;;3.63;1.60;;;14.90;99.90;;;;;;5191464;28;20033;-78
2022/10/04 08:38:43;;;;;;;4.18;1.42;;;15.00;99.90;;;;;;5200529;28;20060;-78
2022/10/04 08:41:55;;;;;;;2.28;1.63;;;15.30;99.90;;;;;;5182327;28;20338;-78
2022/10/04 08:44:32;;;;;;;2.55;1.58;;;15.20;99.90;;;;;;5198186;28;20411;-76
2022/10/04 08:47:49;;;;;;;5.28;1.50;;;15.20;99.90;;;;;;5194111;28;20033;-77
2022/10/04 08:50:36;;;;;;;5.43;1.35;;;15.00;99.90;;;;;;5178748;28;20025;-76
2022/10/04 08:53:37;;;;;;;5.20;1.75;;;15.40;99.90;;;;;;5179725;28;20040;-76
2022/10/04 08:56:42;;;;;;;3.67;1.40;;;15.30;99.90;;;;;;5201674;28;20593;-77
2022/10/04 08:59:41;;;;;;;2.58;1.75;;;15.40;99.90;;;;;;5183346;28;20490;-76
2022/10/04 09:02:18;;;;;;;3.58;1.30;;;15.60;99.90;;;;;;5174130;28;1307956;-78
2022/10/04 09:05:10;;;;;;;1.38;1.08;;;15.80;99.90;;;;;;5193452;28;20063;-76
2022/10/04 09:08:21;;;;;;;3.17;1.38;;;15.70;99.90;;;;;;5208530;28;20025;-76
2022/10/04 09:11:10;;;;;;;4.22;1.50;;;15.50;99.90;;;;;;5235255;28;20032;-78
2022/10/04 09:13:56;;;;;;;3.35;1.52;;;16.00;99.90;;;;;;5202386;28;20032;-78
2022/10/04 09:16:54;;;;;;;5.40;1.45;;;16.10;99.90;;;;;;5219770;28;20055;-78
2022/10/04 09:19:56;;;;;;;1.60;1.17;;;15.90;99.90;;;;;;5201347;28;20482;-78
2022/10/04 09:22:33;;;;;;;3.25;1.63;;;15.80;99.90;;;;;;5202560;28;20027;-78
2022/10/04 09:25:04;;;;;;;4.38;1.30;;;15.60;99.90;;;;;;5202076;28;20031;-77
2022/10/04 09:28:02;;;;;;;2.80;1.63;;;15.70;99.90;;;;;;5219138;28;20024;-76
2022/10/04 09:30:40;;;;;;;4.20;1.50;;;16.00;99.90;;;;;;5223524;28;20031;-77
2022/10/04 09:33:24;;;;;;;4.00;1.55;;;16.00;99.90;;;;;;5203796;28;20033;-78
2022/10/04 09:36:07;;;;;;;2.00;1.60;;;15.60;99.90;;;;;;5201921;28;20033;-77
2022/10/04 09:39:00;;;;;;;12.77;2.88;;;15.70;99.90;;;;;;5202218;28;20192;-78
2022/10/04 09:41:41;;;;;;;3.90;1.52;;;15.70;99.90;;;;;;5233349;28;20518;-78
2022/10/04 09:44:32;;;;;;;1.65;1.55;;;15.70;99.90;;;;;;5220884;28;20031;-78
2022/10/04 09:47:30;;;;;;;2.75;1.55;;;15.80;99.90;;;;;;5219832;28;20035;-76
2022/10/04 09:50:09;;;;;;;3.33;1.63;;;16.00;99.90;;;;;;5201338;28;20021;-76
2022/10/04 09:53:07;;;;;;;2.22;1.50;;;16.30;99.90;;;;;;5185512;28;20017;-77
2022/10/04 09:56:13;;;;;;;2.65;1.20;;;15.80;99.90;;;;;;5178316;28;20358;-78
2022/10/04 09:59:10;;;;;;;4.13;1.85;;;15.70;99.90;;;;;;5201755;28;20032;-76
2022/10/04 10:02:11;;;;;;;2.08;1.42;;;15.60;99.90;;;;;;5204626;28;20040;-76
2022/10/04 10:05:15;;;;;;;1.48;1.20;;;15.70;99.90;;;;;;5188193;28;20037;-77
2022/10/04 10:07:49;;;;;;;1.83;1.17;;;15.50;99.90;;;;;;5203218;28;20463;-78
2022/10/04 10:13:42;;;;;;;1.33;1.23;;;15.80;99.90;;;;;;5237223;28;20378;-75
2022/10/04 10:16:52;;;;;;;3.13;1.42;;;16.00;99.90;;;;;;5180264;28;20048;-75
2022/10/04 10:19:46;;;;;;;4.32;1.88;;;16.10;99.90;;;;;;5180383;28;20022;-75
2022/10/04 10:22:35;;;;;;;1.88;1.45;;;16.10;99.90;;;;;;5202550;28;20015;-76
2022/10/04 10:25:27;;;;;;;3.13;1.17;;;16.40;99.90;;;;;;5218682;28;20025;-75
2022/10/04 10:28:36;;;;;;;1.33;1.23;;;16.50;99.90;;;;;;5200995;28;20027;-77
2022/10/04 10:31:16;;;;;;;1.75;1.40;;;16.70;99.90;;;;;;5200792;28;20216;-76
2022/10/04 10:34:11;;;;;;;4.80;1.60;;;16.70;99.90;;;;;;5231738;28;20030;-75
2022/10/04 10:37:08;;;;;;;1.52;1.42;;;16.90;99.90;;;;;;5237164;28;20027;-76
2022/10/04 10:40:06;;;;;;;3.75;1.70;;;17.00;99.90;;;;;;5223639;28;20021;-77
2022/10/04 10:43:17;;;;;;;1.50;1.40;;;17.10;99.90;;;;;;5221428;28;20039;-77
2022/10/04 10:46:03;;;;;;;1.90;1.33;;;16.90;99.90;;;;;;5126534;28;20047;-76
2022/10/04 10:48:49;;;;;;;3.03;1.50;;;16.80;99.90;;;;;;5114859;29;20068;-76
2022/10/04 10:51:55;;;;;;;2.80;1.60;;;17.00;99.90;;;;;;5114326;29;20043;-75
2022/10/04 10:55:00;;;;;;;1.70;1.45;;;16.70;99.90;;;;;;5103818;29;20051;-75
2022/10/04 10:58:10;;;;;;;4.97;1.75;;;16.60;99.90;;;;;;5099711;29;20047;-76
2022/10/04 11:00:42;;;;;;;2.35;2.15;;;16.70;99.90;;;;;;5120300;28;20049;-75
2022/10/04 11:04:00;;;;;;;3.20;1.55;;;16.70;99.90;;;;;;5135942;28;20030;-75
2022/10/04 11:06:47;;;;;;;6.90;1.40;;;17.10;99.90;;;;;;5090747;28;20591;-77
2022/10/04 11:09:31;;;;;;;2.72;1.40;;;17.10;99.90;;;;;;5099533;28;20042;-76
2022/10/04 11:12:14;;;;;;;1.90;1.35;;;17.50;99.90;;;;;;5134337;28;20042;-77
2022/10/04 11:15:23;;;;;;;1.40;1.00;;;18.10;99.90;;;;;;5101809;28;20490;-75
2022/10/04 11:18:29;;;;;;;2.85;1.33;;;18.10;99.90;;;;;;5117727;28;20043;-76
2022/10/04 11:21:28;;;;;;;2.28;1.30;;;17.30;99.90;;;;;;5237198;28;20436;-77
2022/10/04 11:24:12;;;;;;;1.30;1.20;;;18.30;99.90;;;;;;5209294;28;20502;-75
2022/10/04 11:27:03;;;;;;;2.50;1.20;;;19.00;99.90;;;;;;5196245;28;20453;-76
2022/10/04 11:29:46;;;;;;;2.05;1.52;;;19.60;99.90;;;;;;5196529;28;20222;-77
2022/10/04 11:33:00;;;;;;;2.83;0.93;;;20.70;99.90;;;;;;5198548;28;20034;-76
2022/10/04 11:35:37;;;;;;;2.85;1.40;;;20.50;99.90;;;;;;5204046;28;20045;-76
2022/10/04 11:38:53;;;;;;;3.20;1.27;;;21.80;99.90;;;;;;5215437;28;20017;-76
2022/10/04 11:41:47;;;;;;;4.25;1.02;;;21.80;99.90;;;;;;5221237;28;20336;-75
2022/10/04 11:44:25;;;;;;;3.60;1.40;;;22.30;99.90;;;;;;5237657;28;20516;-76
2022/10/04 11:47:17;;;;;;;1.75;1.10;;;22.20;99.90;;;;;;5237401;28;20035;-75
2022/10/04 11:50:07;;;;;;;3.28;1.40;;;22.70;99.90;;;;;;5202781;28;20032;-79
2022/10/04 11:53:12;;;;;;;4.15;1.65;;;22.50;99.90;;;;;;5179509;28;20354;-76
2022/10/04 11:56:09;;;;;;;2.28;1.00;;;21.00;99.90;;;;;;5214021;28;20553;-77
2022/10/04 11:58:43;;;;;;;5.13;1.75;;;21.10;99.90;;;;;;5219116;28;20028;-77
2022/10/04 12:01:29;;;;;;;2.28;1.42;;;20.10;99.90;;;;;;5222810;28;20032;-77
2022/10/04 12:04:21;;;;;;;1.58;1.05;;;19.50;99.90;;;;;;5239805;28;20024;-76
2022/10/04 12:07:07;;;;;;;1.65;1.20;;;18.50;99.90;;;;;;5195650;28;20045;-76
2022/10/04 12:09:48;;;;;;;2.97;1.00;;;19.30;99.90;;;;;;5203338;28;20036;-76
2022/10/04 12:12:37;;;;;;;2.78;1.25;;;19.80;99.90;;;;;;5219989;28;20031;-76
2022/10/04 12:15:14;;;;;;;1.08;1.00;;;19.50;99.90;;;;;;5204131;28;20021;-77
2022/10/04 12:18:07;;;;;;;2.45;1.17;;;19.40;99.90;;;;;;5202991;28;20033;-77
2022/10/04 12:20:55;;;;;;;2.47;1.52;;;18.60;99.90;;;;;;5220176;28;20550;-77
2022/10/04 12:24:02;;;;;;;2.78;1.20;;;18.40;99.90;;;;;;5217536;28;20031;-76
2022/10/04 12:26:53;;;;;;;1.80;1.25;;;19.10;99.90;;;;;;5198258;28;20017;-76
2022/10/04 12:29:44;;;;;;;3.05;1.20;;;19.90;99.90;;;;;;5216074;28;20021;-76
2022/10/04 12:32:27;;;;;;;2.53;1.15;;;21.40;99.90;;;;;;5199595;28;20025;-76
2022/10/04 12:35:04;;;;;;;2.88;1.92;;;21.80;99.90;;;;;;5216218;28;20577;-75
2022/10/04 12:37:55;;;;;;;3.03;1.27;;;22.20;99.90;;;;;;5198827;28;20323;-77
2022/10/04 12:40:54;;;;;;;2.50;1.13;;;22.00;99.90;;;;;;5227919;28;20020;-77
2022/10/04 12:43:56;;;;;;;3.17;1.30;;;21.90;99.90;;;;;;5238047;28;20012;-77
2022/10/04 12:46:36;;;;;;;4.15;2.05;;;20.30;99.90;;;;;;5216670;28;20043;-77
2022/10/04 12:49:16;;;;;;;1.50;1.40;;;19.80;99.90;;;;;;5216511;28;20025;-76
2022/10/04 12:52:08;;;;;;;2.10;1.40;;;18.80;99.90;;;;;;5215429;28;20679;-77
2022/10/04 12:55:01;;;;;;;3.30;1.33;;;18.60;99.90;;;;;;5201847;28;20025;-77
2022/10/04 12:57:48;;;;;;;3.28;1.30;;;18.70;99.90;;;;;;5220717;28;20040;-77
2022/10/04 13:00:21;;;;;;;3.08;1.30;;;18.60;99.90;;;;;;5221472;28;20013;-75
2022/10/04 13:03:22;;;;;;;3.93;1.53;;;18.30;99.90;;;;;;5217177;28;20037;-76
2022/10/04 13:06:01;;;;;;;2.55;1.17;;;20.10;99.90;;;;;;5197777;28;20083;-76
2022/10/04 13:08:52;;;;;;;1.83;1.10;;;21.80;99.90;;;;;;5194792;28;20027;-76
2022/10/04 13:11:50;;;;;;;1.15;1.02;;;22.10;99.90;;;;;;5235957;28;20016;-76
2022/10/04 13:14:35;;;;;;;2.15;1.15;;;22.40;99.90;;;;;;5237185;28;20025;-77
2022/10/04 13:17:31;;;;;;;2.83;0.98;;;22.30;99.90;;;;;;5238449;28;20040;-75
2022/10/04 13:20:20;;;;;;;1.85;1.00;;;21.20;99.90;;;;;;5234699;28;20031;-76
2022/10/04 13:23:16;;;;;;;1.55;1.05;;;21.50;99.90;;;;;;5197284;28;20040;-78
2022/10/04 13:26:06;;;;;;;2.42;1.25;;;22.40;99.90;;;;;;5215846;28;20028;-76
2022/10/04 13:29:01;;;;;;;2.50;1.30;;;22.10;99.90;;;;;;5216208;28;20017;-77
2022/10/04 13:31:54;;;;;;;1.48;1.20;;;20.30;99.90;;;;;;5197470;28;20028;-77
2022/10/04 13:34:48;;;;;;;1.20;1.10;;;20.20;99.90;;;;;;5216448;28;20032;-76
2022/10/04 13:37:48;;;;;;;1.35;1.10;;;20.60;99.90;;;;;;5229394;28;20021;-76
2022/10/04 13:40:27;;;;;;;1.40;1.20;;;20.90;99.90;;;;;;5216808;28;20047;-77
2022/10/04 13:43:07;;;;;;;1.88;1.20;;;21.10;99.90;;;;;;5202164;28;20067;-77
2022/10/04 13:45:57;;;;;;;0.90;0.90;;;21.20;99.90;;;;;;5219483;28;20035;-76
2022/10/04 13:48:40;;;;;;;2.25;1.20;;;21.20;99.90;;;;;;5199163;28;20033;-78
2022/10/04 13:51:25;;;;;;;1.77;1.25;;;21.30;99.90;;;;;;5189169;28;20029;-76
2022/10/04 13:57:47;;;;;;;1.15;1.08;;;20.60;99.90;;;;;;5196968;28;20037;-76
2022/10/04 14:00:37;;;;;;;2.10;1.33;;;20.30;99.90;;;;;;5205155;28;20024;-78
2022/10/04 14:03:51;;;;;;;2.28;1.60;;;19.50;99.90;;;;;;5232437;28;20044;-76
2022/10/04 14:06:49;;;;;;;3.35;1.52;;;19.10;99.90;;;;;;5208319;28;20053;-76
2022/10/04 14:09:42;;;;;;;2.10;1.10;;;18.70;99.90;;;;;;5219773;28;20017;-78
2022/10/04 14:12:24;;;;;;;5.18;1.45;;;18.50;99.90;;;;;;5239103;28;20036;-77
2022/10/04 14:15:05;;;;;;;1.13;1.10;;;18.20;99.90;;;;;;5238733;28;20044;-76
2022/10/04 14:18:07;;;;;;;1.42;1.33;;;18.90;99.90;;;;;;5238810;28;20369;-76
2022/10/04 14:20:40;;;;;;;2.05;1.35;;;19.70;99.90;;;;;;5231121;28;20455;-75
2022/10/04 14:23:44;;;;;;;3.30;1.38;;;20.60;99.90;;;;;;5218827;28;20055;-78
2022/10/04 14:26:48;;;;;;;1.35;1.20;;;19.40;99.90;;;;;;5210744;28;20028;-76
2022/10/04 14:29:39;;;;;;;1.83;1.25;;;19.80;99.90;;;;;;5218667;28;20021;-76
2022/10/04 14:32:31;;;;;;;1.10;1.00;;;20.90;99.90;;;;;;5218227;28;20029;-78
2022/10/04 14:35:31;;;;;;;2.85;1.13;;;20.90;99.90;;;;;;5220842;28;20039;-77
2022/10/04 14:38:19;;;;;;;1.55;1.30;;;20.20;99.90;;;;;;5220956;28;20032;-76